createdAt,value
2023-05-19T00:00:14.842Z,13.12
2023-05-19T00:02:44.228Z,13.13
2023-05-19T00:05:18.674Z,13.16
2023-05-19T00:07:48.286Z,13.19
2023-05-19T00:10:18.506Z,13.19
2023-05-19T00:12:47.096Z,13.16
2023-05-19T00:15:16.367Z,13.15
2023-05-19T00:17:44.825Z,13.12
2023-05-19T00:20:15.888Z,13.13
2023-05-19T00:22:45.066Z,13.13
2023-05-19T00:25:13.429Z,13.13
2023-05-19T00:27:41.712Z,13.12
2023-05-19T00:30:10.824Z,13.15
2023-05-19T00:32:39.155Z,13.11
2023-05-19T00:35:08.319Z,13.12
2023-05-19T00:37:37.862Z,13.13
2023-05-19T00:40:07.704Z,13.15
2023-05-19T00:42:36.136Z,13.15
2023-05-19T00:45:04.745Z,13.13
2023-05-19T00:47:33.055Z,13.12
2023-05-19T00:50:01.340Z,13.13
2023-05-19T00:52:29.943Z,13.12
2023-05-19T00:54:59.670Z,13.11
2023-05-19T00:57:28.255Z,13.09
2023-05-19T00:59:56.910Z,13.08
2023-05-19T01:02:25.353Z,13.09
2023-05-19T01:04:55.547Z,13.08
2023-05-19T01:07:25.517Z,13.09
2023-05-19T01:09:53.829Z,13.09
2023-05-19T01:12:23.596Z,13.09
2023-05-19T01:14:52.231Z,13.06
2023-05-19T01:17:25.478Z,13.04
2023-05-19T01:20:05.175Z,13.04
2023-05-19T01:22:55.072Z,13.05
2023-05-19T01:25:54.588Z,13.01
2023-05-19T01:29:08.834Z,12.99
2023-05-19T01:31:42.152Z,13.02
2023-05-19T01:34:13.413Z,13.04
2023-05-19T01:36:44.939Z,13.05
2023-05-19T01:39:15.463Z,13.02
2023-05-19T01:41:45.741Z,13.01
2023-05-19T01:44:18.115Z,12.99
2023-05-19T01:46:48.271Z,12.98
2023-05-19T01:49:16.487Z,12.98
2023-05-19T01:51:47.688Z,12.96
2023-05-19T01:54:15.981Z,12.98
2023-05-19T01:56:51.324Z,13.02
2023-05-19T01:59:38.759Z,12.96
2023-05-19T02:02:17.056Z,13.01
2023-05-19T02:04:52.218Z,13.04
2023-05-19T02:07:28.753Z,13.04
2023-05-19T02:10:05.801Z,13.01
2023-05-19T02:12:37.797Z,12.99
2023-05-19T02:15:08.732Z,12.96
2023-05-19T02:17:42.646Z,12.95
2023-05-19T02:20:12.287Z,12.94
2023-05-19T02:22:41.082Z,12.92
2023-05-19T02:25:10.383Z,12.94
2023-05-19T02:27:39.942Z,12.88
2023-05-19T02:30:10.115Z,12.89
2023-05-19T02:32:40.076Z,12.88
2023-05-19T02:35:09.129Z,12.87
2023-05-19T02:37:37.401Z,12.87
2023-05-19T02:40:06.829Z,12.88
2023-05-19T02:42:35.207Z,12.87
2023-05-19T02:45:08.292Z,12.83
2023-05-19T02:47:37.276Z,12.83
2023-05-19T02:50:09.059Z,12.83
2023-05-19T02:52:37.218Z,12.83
2023-05-19T02:55:08.179Z,12.84
2023-05-19T02:57:36.510Z,12.81
2023-05-19T03:00:07.041Z,12.80
2023-05-19T03:02:35.605Z,12.75
2023-05-19T03:05:04.258Z,12.75
2023-05-19T03:07:34.013Z,12.75
2023-05-19T03:10:04.007Z,12.73
2023-05-19T03:12:32.617Z,12.71
2023-05-19T03:15:01.109Z,12.69
2023-05-19T03:17:33.872Z,12.71
2023-05-19T03:20:02.758Z,12.68
2023-05-19T03:22:30.939Z,12.65
2023-05-19T03:25:00.618Z,12.63
2023-05-19T03:27:28.975Z,12.63
2023-05-19T03:29:57.336Z,12.61
2023-05-19T03:32:25.900Z,12.60
2023-05-19T03:34:54.330Z,12.60
2023-05-19T03:37:22.612Z,12.58
2023-05-19T03:39:50.832Z,12.58
2023-05-19T03:42:20.458Z,12.58
2023-05-19T03:44:48.778Z,12.60
2023-05-19T03:47:17.227Z,12.57
2023-05-19T03:49:50.229Z,12.56
2023-05-19T03:52:36.867Z,12.51
2023-05-19T03:55:14.832Z,12.50
2023-05-19T03:57:44.651Z,12.47
2023-05-19T04:00:14.139Z,12.50
2023-05-19T04:02:42.662Z,12.51
2023-05-19T04:05:15.552Z,12.51
2023-05-19T04:07:45.235Z,12.53
2023-05-19T04:10:14.049Z,12.53
2023-05-19T04:12:42.303Z,12.53
2023-05-19T04:15:12.999Z,12.57
2023-05-19T04:17:42.133Z,12.58
2023-05-19T04:20:12.229Z,12.58
2023-05-19T04:22:40.407Z,12.58
2023-05-19T04:25:09.615Z,12.57
2023-05-19T04:27:39.112Z,12.60
2023-05-19T04:30:09.532Z,12.58
2023-05-19T04:32:39.784Z,12.64
2023-05-19T04:35:08.671Z,12.64
2023-05-19T04:37:38.499Z,12.67
2023-05-19T04:40:11.322Z,12.73
2023-05-19T04:42:42.757Z,12.73
2023-05-19T04:45:14.265Z,12.75
2023-05-19T04:47:48.252Z,12.77
2023-05-19T04:50:17.404Z,12.75
2023-05-19T04:52:46.666Z,12.81
2023-05-19T04:55:16.064Z,12.85
2023-05-19T04:57:45.106Z,12.88
2023-05-19T05:00:14.801Z,12.91
2023-05-19T05:03:05.513Z,12.95
2023-05-19T05:05:34.501Z,12.99
2023-05-19T05:08:03.274Z,12.99
2023-05-19T05:10:36.788Z,13.02
2023-05-19T05:13:05.478Z,13.06
2023-05-19T05:15:34.158Z,13.06
2023-05-19T05:18:05.938Z,13.11
2023-05-19T05:20:35.076Z,13.15
2023-05-19T05:23:04.121Z,13.16
2023-05-19T05:25:34.698Z,13.19
2023-05-19T05:28:05.330Z,13.29
2023-05-19T05:30:37.665Z,13.40
2023-05-19T05:33:10.257Z,13.44
2023-05-19T05:35:40.349Z,13.54
2023-05-19T05:38:11.641Z,13.63
2023-05-19T05:40:40.582Z,13.66
2023-05-19T05:43:11.931Z,13.78
2023-05-19T05:45:46.804Z,13.81
2023-05-19T05:48:17.320Z,13.85
2023-05-19T05:50:47.038Z,13.94
2023-05-19T05:53:20.694Z,14.00
2023-05-19T05:55:53.664Z,14.08
2023-05-19T05:58:24.422Z,14.15
2023-05-19T06:00:57.244Z,14.25
2023-05-19T06:03:28.532Z,14.28
2023-05-19T06:06:00.500Z,14.29
2023-05-19T06:08:28.982Z,14.30
2023-05-19T06:10:58.368Z,14.39
2023-05-19T06:13:28.053Z,14.50
2023-05-19T06:15:57.765Z,14.55
2023-05-19T06:18:33.872Z,14.59
2023-05-19T06:21:03.441Z,14.64
2023-05-19T06:23:32.592Z,14.66
2023-05-19T06:26:03.547Z,14.73
2023-05-19T06:28:32.147Z,14.84
2023-05-19T06:31:00.492Z,14.90
2023-05-19T06:33:44.493Z,15.11
2023-05-19T06:36:13.987Z,15.12
2023-05-19T06:38:44.414Z,15.08
2023-05-19T06:41:14.500Z,15.07
2023-05-19T06:43:43.674Z,15.05
2023-05-19T06:46:17.887Z,15.07
2023-05-19T06:48:47.844Z,15.18
2023-05-19T06:51:21.877Z,15.17
2023-05-19T06:53:54.935Z,15.25
2023-05-19T06:56:24.535Z,15.28
2023-05-19T06:58:52.974Z,15.35
2023-05-19T07:01:26.667Z,15.43
2023-05-19T07:03:58.617Z,15.53
2023-05-19T07:06:27.332Z,15.69
2023-05-19T07:08:55.793Z,15.82
2023-05-19T07:11:26.447Z,15.83
2023-05-19T07:13:55.163Z,15.86
2023-05-19T07:16:28.559Z,15.86
2023-05-19T07:18:58.331Z,15.96
2023-05-19T07:21:26.665Z,15.97
2023-05-19T07:23:54.913Z,16.01
2023-05-19T07:26:23.817Z,16.10
2023-05-19T07:28:52.614Z,16.18
2023-05-19T07:31:21.054Z,16.26
2023-05-19T07:33:49.559Z,16.20
2023-05-19T07:36:19.659Z,16.21
2023-05-19T07:38:48.036Z,16.26
2023-05-19T07:41:16.339Z,16.21
2023-05-19T07:43:44.659Z,16.22
2023-05-19T07:46:12.966Z,16.21
2023-05-19T07:48:41.325Z,16.20
2023-05-19T07:51:10.278Z,16.13
2023-05-19T07:53:40.044Z,16.21
2023-05-19T07:56:08.301Z,16.26
2023-05-19T07:58:36.517Z,16.36
2023-05-19T08:01:05.114Z,16.47
2023-05-19T08:03:33.631Z,16.45
2023-05-19T08:06:01.930Z,16.42
2023-05-19T08:08:30.273Z,16.56
2023-05-19T08:11:02.835Z,16.71
2023-05-19T08:13:31.498Z,16.82
2023-05-19T08:16:00.894Z,16.84
2023-05-19T08:18:29.566Z,16.92
2023-05-19T08:20:59.982Z,17.10
2023-05-19T08:23:28.286Z,17.23
2023-05-19T08:25:59.901Z,17.32
2023-05-19T08:28:28.146Z,17.41
2023-05-19T08:30:56.370Z,17.55
2023-05-19T08:33:24.642Z,17.62
2023-05-19T08:35:53.030Z,17.66
2023-05-19T08:38:21.384Z,17.65
2023-05-19T08:40:49.951Z,17.66
2023-05-19T08:43:19.697Z,17.74
2023-05-19T08:45:48.401Z,17.75
2023-05-19T08:48:20.479Z,17.85
2023-05-19T08:50:56.427Z,17.93
2023-05-19T08:53:33.940Z,17.87
2023-05-19T08:56:13.259Z,17.92
2023-05-19T08:58:44.330Z,18.03
2023-05-19T09:01:16.988Z,18.07
2023-05-19T09:03:46.618Z,18.12
2023-05-19T09:06:15.057Z,18.18
2023-05-19T09:08:43.931Z,18.29
2023-05-19T09:11:12.302Z,18.41
2023-05-19T09:13:40.621Z,18.57
2023-05-19T09:16:10.608Z,18.61
2023-05-19T09:18:41.219Z,18.60
2023-05-19T09:21:11.288Z,18.68
2023-05-19T09:23:39.627Z,18.79
2023-05-19T09:26:10.941Z,18.99
2023-05-19T09:28:39.180Z,19.19
2023-05-19T09:31:09.048Z,19.43
2023-05-19T09:33:39.706Z,19.61
2023-05-19T09:36:09.295Z,19.67
2023-05-19T09:38:39.039Z,19.65
2023-05-19T09:41:08.941Z,19.34
2023-05-19T09:43:37.680Z,19.41
2023-05-19T09:46:06.772Z,19.54
2023-05-19T09:48:36.576Z,19.68
2023-05-19T09:51:10.498Z,19.82
2023-05-19T09:53:39.124Z,19.81
2023-05-19T09:56:09.878Z,19.82
2023-05-19T09:58:43.239Z,19.95
2023-05-19T10:01:11.553Z,20.05
2023-05-19T10:03:41.329Z,20.15
2023-05-19T10:06:12.102Z,19.96
2023-05-19T10:08:42.475Z,20.20
2023-05-19T10:11:12.263Z,20.23
2023-05-19T10:13:41.126Z,19.95
2023-05-19T10:16:10.732Z,19.88
2023-05-19T10:18:40.104Z,20.18
2023-05-19T10:21:11.828Z,20.49
2023-05-19T10:23:40.142Z,20.71
2023-05-19T10:26:09.312Z,20.88
2023-05-19T10:28:40.803Z,20.96
2023-05-19T10:31:12.616Z,20.85
2023-05-19T10:33:58.269Z,20.91
2023-05-19T10:36:44.390Z,20.99
2023-05-19T10:39:18.384Z,21.14
2023-05-19T10:41:58.897Z,20.91
2023-05-19T10:44:40.999Z,20.71
2023-05-19T10:47:12.452Z,20.99
2023-05-19T10:49:42.205Z,21.09
2023-05-19T10:52:26.948Z,20.87
2023-05-19T10:54:55.696Z,20.96
2023-05-19T10:57:30.759Z,20.92
2023-05-19T11:00:00.768Z,21.09
2023-05-19T11:02:47.691Z,21.26
2023-05-19T11:05:18.587Z,21.50
2023-05-19T11:08:02.468Z,21.64
2023-05-19T11:10:31.117Z,21.73
2023-05-19T11:12:59.664Z,21.76
2023-05-19T11:15:29.209Z,21.69
2023-05-19T11:17:57.933Z,21.91
2023-05-19T11:20:27.234Z,21.97
2023-05-19T11:23:10.565Z,22.14
2023-05-19T11:25:48.115Z,21.83
2023-05-19T11:28:21.193Z,21.79
2023-05-19T11:30:57.873Z,21.80
2023-05-19T11:33:28.006Z,21.86
2023-05-19T11:35:59.241Z,21.79
2023-05-19T11:38:30.411Z,21.35
2023-05-19T11:40:59.213Z,21.32
2023-05-19T11:43:27.904Z,21.59
2023-05-19T11:45:56.386Z,21.91
2023-05-19T11:48:25.865Z,22.25
2023-05-19T11:50:54.546Z,22.48
2023-05-19T11:53:22.856Z,22.12
2023-05-19T11:55:52.712Z,21.96
2023-05-19T11:58:27.289Z,22.01
2023-05-19T12:00:55.597Z,22.29
2023-05-19T12:03:28.779Z,22.59
2023-05-19T12:05:57.894Z,22.45
2023-05-19T12:08:27.310Z,22.49
2023-05-19T12:10:57.422Z,22.63
2023-05-19T12:13:26.441Z,22.80
2023-05-19T12:16:02.392Z,22.97
2023-05-19T12:18:32.723Z,22.93
2023-05-19T12:21:01.392Z,22.87
2023-05-19T12:23:30.813Z,22.56
2023-05-19T12:26:01.048Z,22.35
2023-05-19T12:28:31.462Z,22.57
2023-05-19T12:30:59.960Z,22.86
2023-05-19T12:33:28.450Z,23.07
2023-05-19T12:35:56.795Z,23.30
2023-05-19T12:38:25.249Z,23.45
2023-05-19T12:40:53.636Z,23.47
2023-05-19T12:43:24.210Z,23.39
2023-05-19T12:45:52.842Z,23.55
2023-05-19T12:48:24.111Z,23.72
2023-05-19T12:50:55.734Z,23.21
2023-05-19T12:53:27.314Z,23.22
2023-05-19T12:55:55.683Z,23.38
2023-05-19T12:58:25.576Z,23.59
2023-05-19T13:01:00.025Z,23.35
2023-05-19T13:03:28.574Z,23.25
2023-05-19T13:05:56.858Z,23.11
2023-05-19T13:08:25.785Z,23.31
2023-05-19T13:10:54.693Z,23.51
2023-05-19T13:13:22.886Z,23.28
2023-05-19T13:15:52.563Z,23.25
2023-05-19T13:18:20.844Z,23.44
2023-05-19T13:20:50.345Z,23.68
2023-05-19T13:23:19.485Z,23.82
2023-05-19T13:25:47.786Z,23.89
2023-05-19T13:28:16.182Z,23.89
2023-05-19T13:30:45.925Z,24.00
2023-05-19T13:33:15.766Z,23.70
2023-05-19T13:35:44.208Z,23.66
2023-05-19T13:38:12.573Z,23.63
2023-05-19T13:40:41.652Z,23.48
2023-05-19T13:43:10.220Z,23.55
2023-05-19T13:45:38.806Z,23.72
2023-05-19T13:48:08.656Z,23.96
2023-05-19T13:50:38.343Z,24.24
2023-05-19T13:53:06.705Z,24.47
2023-05-19T13:55:35.100Z,24.64
2023-05-19T13:58:03.678Z,24.60
2023-05-19T14:00:33.185Z,24.61
2023-05-19T14:03:06.071Z,24.81
2023-05-19T14:05:34.735Z,24.79
2023-05-19T14:08:05.757Z,24.78
2023-05-19T14:10:37.208Z,24.54
2023-05-19T14:13:29.546Z,24.43
2023-05-19T14:15:53.993Z,24.33
2023-05-19T14:18:22.425Z,24.38
2023-05-19T14:20:50.643Z,24.31
2023-05-19T14:23:21.741Z,23.97
2023-05-19T14:25:50.226Z,23.80
2023-05-19T14:28:18.837Z,23.73
2023-05-19T14:30:47.835Z,23.62
2023-05-19T14:33:20.531Z,23.65
2023-05-19T14:35:49.967Z,23.76
2023-05-19T14:38:18.511Z,23.92
2023-05-19T14:40:48.566Z,23.99
2023-05-19T14:43:18.862Z,24.03
2023-05-19T14:45:47.127Z,24.04
2023-05-19T14:48:15.903Z,24.09
2023-05-19T14:50:44.338Z,24.02
2023-05-19T14:53:12.582Z,23.61
2023-05-19T14:55:40.924Z,23.48
2023-05-19T14:58:27.011Z,23.55
2023-05-19T15:00:59.103Z,23.65
2023-05-19T15:03:27.446Z,23.65
2023-05-19T15:05:55.766Z,23.66
2023-05-19T15:08:24.044Z,23.66
2023-05-19T15:10:52.528Z,23.63
2023-05-19T15:13:22.350Z,23.66
2023-05-19T15:16:01.679Z,23.51
2023-05-19T15:18:37.005Z,23.44
2023-05-19T15:21:05.785Z,23.47
2023-05-19T15:23:33.942Z,23.27
2023-05-19T15:26:02.304Z,23.34
2023-05-19T15:28:32.318Z,23.28
2023-05-19T15:31:00.853Z,23.24
2023-05-19T15:33:29.360Z,23.22
2023-05-19T15:35:58.401Z,23.22
2023-05-19T15:38:28.503Z,22.99
2023-05-19T15:40:58.240Z,22.84
2023-05-19T15:43:26.480Z,22.89
2023-05-19T15:45:56.333Z,22.86
2023-05-19T15:48:24.836Z,22.84
2023-05-19T15:50:53.161Z,22.80
2023-05-19T15:53:21.447Z,22.76
2023-05-19T15:55:49.776Z,22.76
2023-05-19T15:58:18.271Z,22.57
2023-05-19T16:00:46.530Z,22.46
2023-05-19T16:03:16.321Z,22.35
2023-05-19T16:05:44.642Z,22.18
2023-05-19T16:08:12.872Z,22.05
2023-05-19T16:10:41.294Z,22.00
2023-05-19T16:13:09.819Z,21.88
2023-05-19T16:15:38.243Z,21.81
2023-05-19T16:18:06.941Z,21.66
2023-05-19T16:20:36.872Z,21.59
2023-05-19T16:23:05.267Z,21.46
2023-05-19T16:25:35.670Z,21.43
2023-05-19T16:28:04.144Z,21.41
2023-05-19T16:30:32.820Z,21.26
2023-05-19T16:33:01.476Z,21.25
2023-05-19T16:35:31.131Z,21.26
2023-05-19T16:38:01.065Z,21.28
2023-05-19T16:40:30.989Z,21.22
2023-05-19T16:42:59.638Z,21.19
2023-05-19T16:45:28.225Z,21.11
2023-05-19T16:47:56.781Z,21.06
2023-05-19T16:50:25.280Z,21.02
2023-05-19T16:52:53.663Z,20.98
2023-05-19T16:55:25.551Z,20.92
2023-05-19T16:57:53.881Z,20.87
2023-05-19T17:00:22.385Z,20.87
2023-05-19T17:02:50.855Z,20.85
2023-05-19T17:05:19.562Z,20.81
2023-05-19T17:07:47.862Z,20.76
2023-05-19T17:10:17.565Z,20.70
2023-05-19T17:12:47.838Z,20.70
2023-05-19T17:15:16.924Z,20.63
2023-05-19T17:17:45.202Z,20.61
2023-05-19T17:20:14.606Z,20.60
2023-05-19T17:22:43.482Z,20.61
2023-05-19T17:25:11.946Z,20.60
2023-05-19T17:27:40.278Z,20.58
2023-05-19T17:30:11.112Z,20.53
2023-05-19T17:32:39.805Z,20.49
2023-05-19T17:35:09.271Z,20.47
2023-05-19T17:37:37.733Z,20.41
2023-05-19T17:40:07.141Z,20.40
2023-05-19T17:42:35.454Z,20.36
2023-05-19T17:45:07.832Z,20.32
2023-05-19T17:47:37.790Z,20.22
2023-05-19T17:50:07.009Z,20.15
2023-05-19T17:52:36.345Z,20.11
2023-05-19T17:55:05.870Z,20.02
2023-05-19T17:57:37.219Z,19.95
2023-05-19T18:00:07.587Z,19.82
2023-05-19T18:02:39.128Z,19.67
2023-05-19T18:05:09.274Z,19.51
2023-05-19T18:07:40.251Z,19.30
2023-05-19T18:10:10.780Z,19.10
2023-05-19T18:12:39.110Z,19.09
2023-05-19T18:15:08.331Z,19.15
2023-05-19T18:17:38.087Z,19.17
2023-05-19T18:20:07.525Z,19.20
2023-05-19T18:22:35.990Z,19.12
2023-05-19T18:25:04.439Z,19.00
2023-05-19T18:27:33.587Z,18.98
2023-05-19T18:30:01.988Z,18.85
2023-05-19T18:32:30.418Z,18.82
2023-05-19T18:35:00.127Z,18.73
2023-05-19T18:37:28.909Z,18.68
2023-05-19T18:39:57.608Z,18.62
2023-05-19T18:42:25.996Z,18.52
2023-05-19T18:44:54.454Z,18.47
2023-05-19T18:47:25.417Z,18.38
2023-05-19T18:49:53.841Z,18.31
2023-05-19T18:52:23.910Z,18.34
2023-05-19T18:54:52.370Z,18.29
2023-05-19T18:57:21.012Z,18.26
2023-05-19T18:59:50.152Z,18.24
2023-05-19T19:02:18.512Z,18.18
2023-05-19T19:04:47.083Z,18.02
2023-05-19T19:07:15.547Z,17.87
2023-05-19T19:09:49.286Z,17.74
2023-05-19T19:12:19.617Z,17.55
2023-05-19T19:14:48.621Z,17.44
2023-05-19T19:17:17.251Z,17.41
2023-05-19T19:19:45.752Z,17.39
2023-05-19T19:22:14.865Z,17.38
2023-05-19T19:24:46.851Z,17.39
2023-05-19T19:27:17.857Z,17.37
2023-05-19T19:29:46.339Z,17.34
2023-05-19T19:32:14.983Z,17.30
2023-05-19T19:34:43.580Z,17.24
2023-05-19T19:37:11.867Z,17.13
2023-05-19T19:39:40.625Z,17.00
2023-05-19T19:42:10.489Z,16.86
2023-05-19T19:44:41.184Z,16.77
2023-05-19T19:47:11.665Z,16.73
2023-05-19T19:49:40.046Z,16.68
2023-05-19T19:52:08.340Z,16.68
2023-05-19T19:54:36.786Z,16.72
2023-05-19T19:57:05.726Z,16.73
2023-05-19T19:59:37.867Z,16.71
2023-05-19T20:02:06.621Z,16.66
2023-05-19T20:04:35.339Z,16.63
2023-05-19T20:07:03.933Z,16.62
2023-05-19T20:09:32.610Z,16.61
2023-05-19T20:12:01.498Z,16.59
2023-05-19T20:14:30.288Z,16.59
2023-05-19T20:17:00.381Z,16.48
2023-05-19T20:19:29.789Z,16.38
2023-05-19T20:21:58.225Z,16.34
2023-05-19T20:24:26.690Z,16.13
2023-05-19T20:26:55.763Z,16.03
2023-05-19T20:29:24.353Z,16.01
2023-05-19T20:31:53.645Z,16.01
2023-05-19T20:34:24.722Z,15.94
2023-05-19T20:36:53.248Z,15.87
2023-05-19T20:39:21.489Z,15.77
2023-05-19T20:41:50.141Z,15.69
2023-05-19T20:44:18.694Z,15.62
2023-05-19T20:46:47.277Z,15.62
2023-05-19T20:49:15.606Z,15.63
2023-05-19T20:51:45.496Z,15.63
2023-05-19T20:54:13.841Z,15.60
2023-05-19T20:56:44.217Z,15.53
2023-05-19T20:59:12.607Z,15.53
2023-05-19T21:01:41.226Z,15.53
2023-05-19T21:04:09.707Z,15.62
2023-05-19T21:06:38.436Z,15.71
2023-05-19T21:09:08.082Z,15.83
2023-05-19T21:11:36.351Z,15.89
2023-05-19T21:14:05.166Z,15.97
2023-05-19T21:16:34.147Z,16.06
2023-05-19T21:19:02.942Z,16.15
2023-05-19T21:21:31.760Z,16.21
2023-05-19T21:24:00.246Z,16.21
2023-05-19T21:26:29.872Z,16.22
2023-05-19T21:28:58.215Z,16.24
2023-05-19T21:31:26.497Z,16.26
2023-05-19T21:33:54.818Z,16.24
2023-05-19T21:36:23.243Z,16.24
2023-05-19T21:38:51.706Z,16.24
2023-05-19T21:41:19.991Z,16.25
2023-05-19T21:43:49.662Z,16.26
2023-05-19T21:46:18.069Z,16.26
2023-05-19T21:48:46.379Z,16.29
2023-05-19T21:51:14.662Z,16.29
2023-05-19T21:53:42.907Z,16.26
2023-05-19T21:56:11.300Z,16.29
2023-05-19T21:58:39.718Z,16.34
2023-05-19T22:01:09.811Z,16.36
2023-05-19T22:03:38.110Z,16.36
2023-05-19T22:06:07.652Z,16.34
2023-05-19T22:08:35.894Z,16.31
2023-05-19T22:11:04.178Z,16.31
2023-05-19T22:13:32.510Z,16.28
2023-05-19T22:16:00.893Z,16.24
2023-05-19T22:18:30.550Z,16.20
2023-05-19T22:20:59.006Z,16.18
2023-05-19T22:23:27.296Z,16.04
2023-05-19T22:25:55.581Z,15.94
2023-05-19T22:28:23.800Z,15.83
2023-05-19T22:30:52.085Z,15.85
2023-05-19T22:33:20.299Z,15.86
2023-05-19T22:35:50.074Z,15.85
2023-05-19T22:38:18.227Z,15.80
2023-05-19T22:40:46.615Z,15.76
2023-05-19T22:43:15.063Z,15.70
2023-05-19T22:45:43.402Z,15.66
2023-05-19T22:48:11.887Z,15.60
2023-05-19T22:50:40.140Z,15.63
2023-05-19T22:53:09.803Z,15.74
2023-05-19T22:55:38.038Z,15.85
2023-05-19T22:58:06.880Z,15.97
2023-05-19T23:00:35.130Z,16.00
2023-05-19T23:03:03.466Z,16.06
2023-05-19T23:05:32.018Z,16.03
2023-05-19T23:08:00.580Z,15.91
2023-05-19T23:10:30.161Z,15.83
2023-05-19T23:12:58.405Z,15.69
2023-05-19T23:15:26.834Z,15.56
2023-05-19T23:17:55.255Z,15.55
2023-05-19T23:20:23.597Z,15.48
2023-05-19T23:22:51.807Z,15.42
2023-05-19T23:25:20.126Z,15.34
2023-05-19T23:27:49.810Z,15.29
2023-05-19T23:30:18.170Z,15.35
2023-05-19T23:32:46.699Z,15.39
2023-05-19T23:35:17.277Z,15.48
2023-05-19T23:37:45.698Z,15.50
2023-05-19T23:40:14.440Z,15.50
2023-05-19T23:42:44.417Z,15.53
2023-05-19T23:45:14.305Z,15.59
2023-05-19T23:47:42.561Z,15.60
2023-05-19T23:50:11.856Z,15.62
2023-05-19T23:52:42.067Z,15.65
2023-05-19T23:55:12.717Z,15.63
2023-05-19T23:57:41.035Z,15.58
